Time;durP1;ratioP1;P1;durP2;ratioP2;P2;SDS_P1;SDS_P2;PMS_P1;PMS_P2;Temp;Humidity;BMP_temperature;BMP_pressure;BME280_temperature;BME280_humidity;BME280_pressure;Samples;Min_cycle;Max_cycle;Signal;HPM_P1;HPM_P2
2023/10/31 00:01:20;;;;;;;2.33;1.20;;;;;;;;;;5095027;28;20052;-63
2023/10/31 00:03:47;;;;;;;1.67;1.10;;;;;;;;;;5092436;28;20048;-62
2023/10/31 00:06:14;;;;;;;2.63;1.48;;;;;;;;;;5074764;28;20057;-62
2023/10/31 00:08:41;;;;;;;1.85;1.25;;;;;;;;;;5073673;28;20075;-62
2023/10/31 00:11:09;;;;;;;2.75;1.70;;;;;;;;;;5074324;28;20052;-62
2023/10/31 00:13:36;;;;;;;2.78;1.80;;;;;;;;;;5074290;28;20059;-62
2023/10/31 00:16:03;;;;;;;2.78;2.22;;;;;;;;;;5078317;28;20054;-62
2023/10/31 00:18:30;;;;;;;3.22;2.08;;;;;;;;;;5093376;28;20048;-62
2023/10/31 00:20:56;;;;;;;3.38;2.30;;;;;;;;;;5074777;28;20482;-62
2023/10/31 00:23:23;;;;;;;2.25;1.90;;;;;;;;;;5074475;28;20409;-62
2023/10/31 00:25:50;;;;;;;2.30;1.90;;;;;;;;;;5073924;28;20068;-62
2023/10/31 00:28:18;;;;;;;3.05;1.60;;;;;;;;;;5074636;28;20056;-62
2023/10/31 00:30:45;;;;;;;1.83;1.60;;;;;;;;;;5074637;28;20406;-62
2023/10/31 00:33:12;;;;;;;1.88;1.45;;;;;;;;;;5087013;28;20052;-62
2023/10/31 00:35:39;;;;;;;2.00;1.45;;;;;;;;;;5076418;28;20044;-62
2023/10/31 00:38:05;;;;;;;1.60;1.42;;;;;;;;;;5073715;28;20053;-62
2023/10/31 00:40:32;;;;;;;3.17;1.30;;;;;;;;;;5073359;28;20053;-62
2023/10/31 00:43:00;;;;;;;2.00;1.17;;;;;;;;;;5073768;28;20052;-62
2023/10/31 00:45:28;;;;;;;1.60;1.35;;;;;;;;;;5074103;28;20049;-62
2023/10/31 00:47:55;;;;;;;1.60;1.33;;;;;;;;;;5074631;28;20397;-62
2023/10/31 00:50:22;;;;;;;1.73;1.40;;;;;;;;;;5075293;28;20465;-62
2023/10/31 00:52:48;;;;;;;1.50;1.20;;;;;;;;;;5073160;28;20079;-62
2023/10/31 00:55:16;;;;;;;1.55;1.10;;;;;;;;;;5073770;28;20056;-62
2023/10/31 00:57:41;;;;;;;1.58;1.35;;;;;;;;;;5073663;28;20421;-62
2023/10/31 01:00:16;;;;;;;1.63;1.20;;;;;;;;;;5073901;28;20044;-62
2023/10/31 01:11:53;;;;;;;2.20;1.95;;;;;;;;;;5093921;28;20028;-62
2023/10/31 01:14:20;;;;;;;2.05;1.75;;;;;;;;;;5093736;28;20067;-62
2023/10/31 01:16:47;;;;;;;2.72;1.70;;;;;;;;;;5093713;28;20052;-62
2023/10/31 01:19:14;;;;;;;2.20;1.70;;;;;;;;;;5081802;28;20068;-62
2023/10/31 01:21:40;;;;;;;1.90;1.60;;;;;;;;;;5073384;28;20048;-61
2023/10/31 01:24:08;;;;;;;3.40;1.45;;;;;;;;;;5073050;28;20048;-62
2023/10/31 01:26:35;;;;;;;1.50;1.30;;;;;;;;;;5073565;28;20053;-62
2023/10/31 01:29:04;;;;;;;1.88;1.58;;;;;;;;;;5073138;28;20052;-61
2023/10/31 01:31:32;;;;;;;2.30;1.75;;;;;;;;;;5072550;28;20049;-61
2023/10/31 01:33:59;;;;;;;2.08;1.52;;;;;;;;;;5085586;28;20052;-61
2023/10/31 01:36:26;;;;;;;2.42;1.67;;;;;;;;;;5072930;28;20059;-61
2023/10/31 01:38:53;;;;;;;2.38;1.80;;;;;;;;;;5073131;28;20048;-61
2023/10/31 01:41:20;;;;;;;2.70;1.60;;;;;;;;;;5101612;28;20060;-61
2023/10/31 01:43:47;;;;;;;2.38;1.90;;;;;;;;;;5113472;28;20487;-61
2023/10/31 01:46:15;;;;;;;2.42;1.73;;;;;;;;;;5112821;28;20047;-60
2023/10/31 01:48:42;;;;;;;2.38;1.63;;;;;;;;;;5100957;28;20051;-60
2023/10/31 01:51:10;;;;;;;3.47;1.50;;;;;;;;;;5092891;28;20409;-60
2023/10/31 01:53:37;;;;;;;2.47;1.60;;;;;;;;;;5092477;28;20056;-61
2023/10/31 01:56:05;;;;;;;2.00;1.50;;;;;;;;;;5093346;28;20056;-61
2023/10/31 01:58:33;;;;;;;2.22;1.70;;;;;;;;;;5093894;28;20044;-62
2023/10/31 02:01:00;;;;;;;3.25;1.92;;;;;;;;;;5113470;28;20055;-61
2023/10/31 02:03:29;;;;;;;3.22;1.90;;;;;;;;;;5112918;28;20052;-61
2023/10/31 02:05:56;;;;;;;3.20;2.03;;;;;;;;;;5092714;28;20067;-61
2023/10/31 02:08:23;;;;;;;3.70;1.90;;;;;;;;;;5092410;28;20055;-60
2023/10/31 02:10:50;;;;;;;2.63;1.45;;;;;;;;;;5093121;28;20059;-62
2023/10/31 02:13:17;;;;;;;2.05;1.70;;;;;;;;;;5092836;28;20051;-61
2023/10/31 02:15:44;;;;;;;3.25;1.75;;;;;;;;;;5092940;28;20382;-60
2023/10/31 02:18:11;;;;;;;2.25;1.50;;;;;;;;;;5085085;28;20053;-60
2023/10/31 02:20:39;;;;;;;2.30;1.90;;;;;;;;;;5072533;28;20055;-61
2023/10/31 02:23:07;;;;;;;2.97;1.80;;;;;;;;;;5072259;28;20178;-61
2023/10/31 02:25:34;;;;;;;2.88;1.85;;;;;;;;;;5072674;28;20056;-61
2023/10/31 02:28:01;;;;;;;2.80;1.85;;;;;;;;;;5079266;28;20048;-61
2023/10/31 02:30:28;;;;;;;3.78;1.73;;;;;;;;;;5092757;28;20059;-61
2023/10/31 02:32:55;;;;;;;2.42;1.60;;;;;;;;;;5091706;28;20044;-62
2023/10/31 02:35:21;;;;;;;3.72;1.80;;;;;;;;;;5091790;28;20473;-61
2023/10/31 02:37:48;;;;;;;2.92;2.03;;;;;;;;;;5091389;28;20059;-61
2023/10/31 02:40:16;;;;;;;2.65;1.95;;;;;;;;;;5077738;28;20057;-62
2023/10/31 02:42:43;;;;;;;2.47;1.98;;;;;;;;;;5072906;28;20053;-61
2023/10/31 02:45:10;;;;;;;2.63;2.00;;;;;;;;;;5076525;28;20131;-62
2023/10/31 02:47:37;;;;;;;2.63;2.03;;;;;;;;;;5077578;28;20062;-61
2023/10/31 02:50:04;;;;;;;4.22;2.30;;;;;;;;;;5076012;28;20053;-61
2023/10/31 02:52:31;;;;;;;3.72;2.03;;;;;;;;;;5076490;28;20056;-61
2023/10/31 02:54:58;;;;;;;2.35;2.00;;;;;;;;;;5085358;28;20420;-61
2023/10/31 02:57:26;;;;;;;2.38;1.90;;;;;;;;;;5096534;28;20127;-61
2023/10/31 02:59:53;;;;;;;4.00;2.25;;;;;;;;;;5116951;28;20047;-62
2023/10/31 03:02:20;;;;;;;2.88;1.90;;;;;;;;;;5116148;28;20496;-61
2023/10/31 03:04:47;;;;;;;3.55;2.42;;;;;;;;;;5079691;28;20377;-62
2023/10/31 03:07:13;;;;;;;3.53;2.10;;;;;;;;;;5075466;28;20052;-62
2023/10/31 03:09:40;;;;;;;4.15;2.38;;;;;;;;;;5094913;28;20060;-61
2023/10/31 03:12:07;;;;;;;3.90;2.60;;;;;;;;;;5095818;28;20052;-62
2023/10/31 03:14:35;;;;;;;4.28;2.20;;;;;;;;;;5096029;28;20048;-62
2023/10/31 03:17:02;;;;;;;4.22;1.90;;;;;;;;;;5095474;28;20052;-62
2023/10/31 03:19:29;;;;;;;4.57;2.00;;;;;;;;;;5078854;28;20049;-61
2023/10/31 03:21:56;;;;;;;2.97;1.85;;;;;;;;;;5075175;28;20057;-62
2023/10/31 03:24:22;;;;;;;2.25;1.73;;;;;;;;;;5075648;28;20056;-62
2023/10/31 03:26:49;;;;;;;3.30;2.40;;;;;;;;;;5075463;28;20052;-62
2023/10/31 03:29:16;;;;;;;2.83;2.35;;;;;;;;;;5091532;28;20055;-62
2023/10/31 03:31:44;;;;;;;3.53;2.85;;;;;;;;;;5095802;28;20059;-62
2023/10/31 03:34:11;;;;;;;4.85;3.55;;;;;;;;;;5094411;28;20052;-62
2023/10/31 03:36:38;;;;;;;5.15;3.95;;;;;;;;;;5095952;28;20503;-62
2023/10/31 03:39:04;;;;;;;5.00;4.00;;;;;;;;;;5095138;28;20067;-62
2023/10/31 03:41:31;;;;;;;6.78;4.68;;;;;;;;;;5095215;28;20052;-61
2023/10/31 03:43:58;;;;;;;6.57;4.63;;;;;;;;;;5095211;28;20056;-61
2023/10/31 03:46:25;;;;;;;6.82;4.80;;;;;;;;;;5095444;28;20056;-61
2023/10/31 03:48:53;;;;;;;6.53;4.68;;;;;;;;;;5083736;28;20045;-61
2023/10/31 03:51:20;;;;;;;6.10;4.32;;;;;;;;;;5075241;28;20490;-61
2023/10/31 03:53:47;;;;;;;6.65;4.60;;;;;;;;;;5074507;28;20052;-61
2023/10/31 03:56:13;;;;;;;6.55;5.18;;;;;;;;;;5079003;28;20052;-61
2023/10/31 03:58:41;;;;;;;7.32;5.13;;;;;;;;;;5094789;28;20048;-61
2023/10/31 04:01:07;;;;;;;7.05;4.78;;;;;;;;;;5095098;28;20062;-61
2023/10/31 04:03:34;;;;;;;7.85;5.28;;;;;;;;;;5093047;28;20051;-61
2023/10/31 04:06:02;;;;;;;5.78;4.63;;;;;;;;;;5086943;28;20064;-61
2023/10/31 04:08:29;;;;;;;7.43;5.18;;;;;;;;;;5087154;28;20064;-62
2023/10/31 04:10:56;;;;;;;7.90;5.05;;;;;;;;;;5094982;28;20048;-62
2023/10/31 04:13:23;;;;;;;6.18;4.97;;;;;;;;;;5094857;28;20055;-61
2023/10/31 04:15:51;;;;;;;7.93;5.65;;;;;;;;;;5094656;28;20408;-61
2023/10/31 04:18:18;;;;;;;7.40;5.20;;;;;;;;;;5085389;28;20103;-61
2023/10/31 04:20:45;;;;;;;7.28;4.93;;;;;;;;;;5074677;28;20060;-61
2023/10/31 04:23:13;;;;;;;5.97;4.95;;;;;;;;;;5074564;28;20060;-62
2023/10/31 04:25:40;;;;;;;8.35;5.28;;;;;;;;;;5074635;28;20052;-61
2023/10/31 04:28:07;;;;;;;7.07;4.75;;;;;;;;;;5091149;28;20055;-61
2023/10/31 04:30:34;;;;;;;6.30;4.97;;;;;;;;;;5114680;28;20059;-62
2023/10/31 04:33:00;;;;;;;6.57;5.28;;;;;;;;;;5098583;28;20044;-62
2023/10/31 04:35:27;;;;;;;6.80;5.07;;;;;;;;;;5074504;28;20413;-61
2023/10/31 04:37:54;;;;;;;7.53;5.50;;;;;;;;;;5074021;28;20059;-61
2023/10/31 04:40:22;;;;;;;6.05;4.68;;;;;;;;;;5074130;28;20052;-61
2023/10/31 04:42:49;;;;;;;7.55;5.25;;;;;;;;;;5073777;28;20059;-61
2023/10/31 04:45:16;;;;;;;5.75;4.60;;;;;;;;;;5074189;28;20055;-61
2023/10/31 04:47:43;;;;;;;6.25;4.55;;;;;;;;;;5073685;28;20486;-62
2023/10/31 04:50:10;;;;;;;6.60;4.72;;;;;;;;;;5072890;28;20044;-61
2023/10/31 04:52:39;;;;;;;6.18;4.70;;;;;;;;;;5073610;28;20048;-62
2023/10/31 04:55:06;;;;;;;7.93;4.28;;;;;;;;;;5074034;28;20405;-61
2023/10/31 04:57:34;;;;;;;6.65;4.38;;;;;;;;;;5079309;28;20465;-61
2023/10/31 05:00:03;;;;;;;5.90;4.32;;;;;;;;;;5113542;28;20048;-62
2023/10/31 05:02:30;;;;;;;6.57;4.93;;;;;;;;;;5108520;28;20051;-62
2023/10/31 05:05:00;;;;;;;7.47;4.18;;;;;;;;;;5090142;28;20052;-61
2023/10/31 05:07:27;;;;;;;6.03;3.80;;;;;;;;;;5091070;28;20047;-62
2023/10/31 05:09:54;;;;;;;5.95;4.38;;;;;;;;;;5073308;28;20517;-62
2023/10/31 05:12:22;;;;;;;6.03;3.78;;;;;;;;;;5073257;28;20059;-61
2023/10/31 05:14:50;;;;;;;5.97;3.63;;;;;;;;;;5073500;28;20048;-62
2023/10/31 05:17:17;;;;;;;5.07;3.85;;;;;;;;;;5072824;28;20057;-62
2023/10/31 05:19:44;;;;;;;4.45;3.38;;;;;;;;;;5075697;28;20049;-62
2023/10/31 05:22:11;;;;;;;5.20;3.60;;;;;;;;;;5073085;28;20052;-61
2023/10/31 05:24:37;;;;;;;5.00;3.58;;;;;;;;;;5073105;28;20056;-62
2023/10/31 05:27:07;;;;;;;4.68;3.70;;;;;;;;;;5072507;28;20052;-62
2023/10/31 05:29:34;;;;;;;4.18;3.33;;;;;;;;;;5080099;28;21921;-62
2023/10/31 05:32:02;;;;;;;4.57;3.47;;;;;;;;;;5104197;28;20067;-61
2023/10/31 05:34:29;;;;;;;4.93;3.65;;;;;;;;;;5083815;28;20048;-61
2023/10/31 05:36:56;;;;;;;5.25;4.18;;;;;;;;;;5073065;28;20056;-61
2023/10/31 05:39:22;;;;;;;5.32;4.15;;;;;;;;;;5072331;28;20055;-61
2023/10/31 05:41:52;;;;;;;5.35;3.90;;;;;;;;;;5072495;28;20056;-63
2023/10/31 05:44:19;;;;;;;;;;;;;;;;;;5076843;28;20074;-61
2023/10/31 05:46:49;;;;;;;4.25;3.38;;;;;;;;;;5093351;28;19924;-61
2023/10/31 05:49:17;;;;;;;6.72;4.22;;;;;;;;;;5081357;28;20071;-61
2023/10/31 05:51:44;;;;;;;5.55;3.65;;;;;;;;;;5080197;28;20435;-61
2023/10/31 05:54:10;;;;;;;6.05;3.60;;;;;;;;;;5106458;28;20051;-61
2023/10/31 05:56:40;;;;;;;6.13;4.00;;;;;;;;;;5104992;28;20052;-61
2023/10/31 05:59:07;;;;;;;5.40;4.38;;;;;;;;;;5093272;28;20108;-61
2023/10/31 06:01:33;;;;;;;5.30;4.30;;;;;;;;;;5085654;28;20049;-61
2023/10/31 06:04:03;;;;;;;5.35;4.13;;;;;;;;;;5086491;28;20393;-60
2023/10/31 06:06:30;;;;;;;;;;;;;;;;;;5089997;28;20056;-61
2023/10/31 06:08:58;;;;;;;4.70;4.00;;;;;;;;;;5112107;28;19920;-60
2023/10/31 06:11:25;;;;;;;4.50;3.58;;;;;;;;;;5109529;28;20051;-60
2023/10/31 06:13:51;;;;;;;6.35;4.22;;;;;;;;;;5100759;28;20063;-61
2023/10/31 06:16:18;;;;;;;5.10;4.40;;;;;;;;;;5091927;28;20059;-61
2023/10/31 06:18:45;;;;;;;5.55;4.65;;;;;;;;;;5089027;28;20047;-61
2023/10/31 06:21:12;;;;;;;6.32;4.90;;;;;;;;;;5092532;28;20048;-61
2023/10/31 06:23:39;;;;;;;5.82;5.05;;;;;;;;;;5091665;28;20063;-61
2023/10/31 06:26:07;;;;;;;6.32;5.72;;;;;;;;;;5091054;28;20056;-61
2023/10/31 06:28:36;;;;;;;7.13;5.63;;;;;;;;;;5091553;28;20056;-61
2023/10/31 06:31:03;;;;;;;7.30;5.97;;;;;;;;;;5091951;28;20047;-61
2023/10/31 06:33:30;;;;;;;7.10;5.90;;;;;;;;;;5091749;28;20056;-61
2023/10/31 06:35:57;;;;;;;8.45;5.80;;;;;;;;;;5091945;28;20059;-61
2023/10/31 06:38:24;;;;;;;7.80;6.28;;;;;;;;;;5086976;28;20049;-61
2023/10/31 06:40:51;;;;;;;7.85;6.38;;;;;;;;;;5072234;28;20048;-61
2023/10/31 06:43:19;;;;;;;7.55;6.40;;;;;;;;;;5085928;28;20056;-61
2023/10/31 06:45:46;;;;;;;7.43;5.80;;;;;;;;;;5090028;28;20059;-62
2023/10/31 06:48:12;;;;;;;7.20;6.18;;;;;;;;;;5072248;28;20060;-61
2023/10/31 06:50:39;;;;;;;8.40;6.20;;;;;;;;;;5081746;28;20056;-62
2023/10/31 06:53:06;;;;;;;8.20;6.68;;;;;;;;;;5072577;28;20052;-61
2023/10/31 06:55:33;;;;;;;7.80;6.30;;;;;;;;;;5081707;28;20055;-62
2023/10/31 06:57:59;;;;;;;7.55;6.03;;;;;;;;;;5075173;28;20540;-62
2023/10/31 07:00:28;;;;;;;6.63;5.10;;;;;;;;;;5090017;28;20508;-62
2023/10/31 07:02:54;;;;;;;6.32;5.30;;;;;;;;;;5074117;28;20049;-62
2023/10/31 07:05:21;;;;;;;5.95;5.20;;;;;;;;;;5082354;28;20051;-62
2023/10/31 07:07:48;;;;;;;7.53;5.25;;;;;;;;;;5077762;28;20045;-62
2023/10/31 07:10:15;;;;;;;5.88;5.28;;;;;;;;;;5080548;28;20044;-62
2023/10/31 07:12:41;;;;;;;7.88;5.03;;;;;;;;;;5073794;28;20048;-62
2023/10/31 07:15:09;;;;;;;7.53;5.25;;;;;;;;;;5085194;28;20051;-62
2023/10/31 07:17:37;;;;;;;7.45;5.18;;;;;;;;;;5078923;28;20045;-62
2023/10/31 07:20:05;;;;;;;7.20;5.65;;;;;;;;;;5094210;28;20052;-61
2023/10/31 07:22:34;;;;;;;6.88;5.40;;;;;;;;;;5084984;28;20063;-62
2023/10/31 07:25:03;;;;;;;8.18;5.85;;;;;;;;;;5078142;28;20072;-62
2023/10/31 07:27:29;;;;;;;6.30;5.30;;;;;;;;;;5078372;28;20059;-61
2023/10/31 07:30:02;;;;;;;6.45;5.75;;;;;;;;;;5088504;28;20520;-61
2023/10/31 07:32:29;;;;;;;6.30;5.00;;;;;;;;;;5093165;28;20047;-62
2023/10/31 07:34:57;;;;;;;6.68;5.00;;;;;;;;;;5095157;28;20402;-61
2023/10/31 07:37:24;;;;;;;6.88;5.80;;;;;;;;;;5095486;28;20052;-61
2023/10/31 07:39:51;;;;;;;5.53;4.90;;;;;;;;;;5095547;28;20086;-61
2023/10/31 07:42:18;;;;;;;6.10;5.00;;;;;;;;;;5095238;28;20504;-61
2023/10/31 07:44:45;;;;;;;5.70;5.10;;;;;;;;;;5095330;28;20378;-61
2023/10/31 07:47:12;;;;;;;5.03;4.53;;;;;;;;;;5094882;28;20412;-61
2023/10/31 07:49:38;;;;;;;6.32;4.82;;;;;;;;;;5094786;28;20135;-61
2023/10/31 07:52:07;;;;;;;5.05;4.53;;;;;;;;;;5094824;28;20060;-61
2023/10/31 07:54:34;;;;;;;6.65;5.07;;;;;;;;;;5095275;28;20056;-61
2023/10/31 07:57:00;;;;;;;6.75;5.57;;;;;;;;;;5095137;28;20428;-61
2023/10/31 07:59:27;;;;;;;6.13;5.40;;;;;;;;;;5095015;28;20087;-61
2023/10/31 08:01:54;;;;;;;6.13;5.53;;;;;;;;;;5094525;28;20070;-61
2023/10/31 08:04:21;;;;;;;5.65;4.60;;;;;;;;;;5115381;28;20074;-61
2023/10/31 08:06:48;;;;;;;5.80;4.35;;;;;;;;;;5114982;28;20059;-60
2023/10/31 08:09:16;;;;;;;4.55;3.80;;;;;;;;;;5114198;28;20047;-61
2023/10/31 08:11:43;;;;;;;6.75;4.80;;;;;;;;;;5115172;28;20058;-61
2023/10/31 08:14:10;;;;;;;5.95;3.80;;;;;;;;;;5114863;28;20055;-61
2023/10/31 08:16:37;;;;;;;5.50;3.92;;;;;;;;;;5115163;28;20044;-61
2023/10/31 08:19:04;;;;;;;4.03;3.30;;;;;;;;;;5113986;28;20142;-61
2023/10/31 08:21:34;;;;;;;4.20;3.80;;;;;;;;;;5112852;28;20480;-62
2023/10/31 08:24:01;;;;;;;4.40;3.45;;;;;;;;;;5114784;28;20078;-61
2023/10/31 08:26:30;;;;;;;4.35;3.90;;;;;;;;;;5114778;28;20058;-61
2023/10/31 08:28:57;;;;;;;5.78;4.45;;;;;;;;;;5114431;28;20056;-61
2023/10/31 08:31:24;;;;;;;4.60;4.10;;;;;;;;;;5110088;28;20051;-62
2023/10/31 08:33:50;;;;;;;5.18;4.68;;;;;;;;;;5093739;28;20098;-62
2023/10/31 08:36:17;;;;;;;4.95;4.40;;;;;;;;;;5094396;28;20476;-61
2023/10/31 08:38:44;;;;;;;5.80;4.57;;;;;;;;;;5093902;28;20047;-62
2023/10/31 08:41:11;;;;;;;5.60;4.82;;;;;;;;;;5093069;28;20048;-62
2023/10/31 08:43:39;;;;;;;5.30;4.80;;;;;;;;;;5094049;28;20405;-62
2023/10/31 08:46:06;;;;;;;5.45;4.65;;;;;;;;;;5093944;28;20052;-62
2023/10/31 08:48:33;;;;;;;4.90;4.40;;;;;;;;;;5093786;28;20056;-62
2023/10/31 08:51:00;;;;;;;4.80;4.30;;;;;;;;;;5094186;28;20048;-62
2023/10/31 08:53:27;;;;;;;5.65;4.50;;;;;;;;;;5093779;28;20063;-62
2023/10/31 08:55:54;;;;;;;4.63;4.18;;;;;;;;;;5093664;28;20063;-62
2023/10/31 08:58:20;;;;;;;4.47;3.97;;;;;;;;;;5093672;28;20082;-63
2023/10/31 09:00:49;;;;;;;4.15;3.75;;;;;;;;;;5094046;28;20128;-63
2023/10/31 09:03:16;;;;;;;6.27;3.80;;;;;;;;;;5105631;28;20058;-63
2023/10/31 09:05:44;;;;;;;3.92;3.50;;;;;;;;;;5114144;28;20485;-63
2023/10/31 09:08:10;;;;;;;3.42;3.13;;;;;;;;;;5114043;28;20048;-63
2023/10/31 09:10:38;;;;;;;4.65;3.40;;;;;;;;;;5114331;28;20051;-62
2023/10/31 09:13:05;;;;;;;3.88;3.25;;;;;;;;;;5113204;28;20051;-62
2023/10/31 09:15:31;;;;;;;3.90;3.50;;;;;;;;;;5114038;28;20052;-62
2023/10/31 09:17:59;;;;;;;4.72;3.72;;;;;;;;;;5113918;28;20048;-62
2023/10/31 09:20:27;;;;;;;6.65;4.13;;;;;;;;;;5113308;28;20051;-62
2023/10/31 09:22:54;;;;;;;4.57;3.70;;;;;;;;;;5113782;28;20048;-62
2023/10/31 09:25:21;;;;;;;6.97;3.80;;;;;;;;;;5113890;28;20058;-62
2023/10/31 09:27:48;;;;;;;6.10;3.70;;;;;;;;;;5113729;28;20440;-62
2023/10/31 09:30:14;;;;;;;4.93;3.47;;;;;;;;;;5113728;28;20056;-62
2023/10/31 09:32:41;;;;;;;4.90;3.40;;;;;;;;;;5113511;28;20051;-62
2023/10/31 09:35:10;;;;;;;4.40;3.50;;;;;;;;;;5097704;28;20056;-62
2023/10/31 09:37:36;;;;;;;4.60;3.72;;;;;;;;;;5093106;28;20055;-61
2023/10/31 09:40:04;;;;;;;4.25;3.45;;;;;;;;;;5093227;28;20066;-61
2023/10/31 09:42:32;;;;;;;4.07;3.28;;;;;;;;;;5092985;28;20048;-62
2023/10/31 09:44:59;;;;;;;5.70;4.28;;;;;;;;;;5092622;28;20052;-62
2023/10/31 09:47:26;;;;;;;4.55;3.40;;;;;;;;;;5092938;28;20055;-61
2023/10/31 09:49:53;;;;;;;4.65;3.30;;;;;;;;;;5092768;28;20056;-61
2023/10/31 09:52:22;;;;;;;4.35;3.13;;;;;;;;;;5092423;28;20051;-61
2023/10/31 09:54:49;;;;;;;4.45;3.00;;;;;;;;;;5093188;28;20062;-61
2023/10/31 09:57:18;;;;;;;3.47;2.97;;;;;;;;;;5092488;28;20110;-61
2023/10/31 09:59:44;;;;;;;3.92;3.45;;;;;;;;;;5092035;28;20055;-61
2023/10/31 10:02:11;;;;;;;5.60;3.08;;;;;;;;;;5091891;28;20044;-61
2023/10/31 10:04:38;;;;;;;4.05;3.40;;;;;;;;;;5092622;28;20048;-62
2023/10/31 10:07:05;;;;;;;4.25;3.03;;;;;;;;;;5092558;28;20071;-61
2023/10/31 10:09:33;;;;;;;3.05;2.70;;;;;;;;;;5092390;28;20524;-61
2023/10/31 10:12:01;;;;;;;4.53;2.50;;;;;;;;;;5092588;28;20044;-61
2023/10/31 10:14:31;;;;;;;4.40;2.90;;;;;;;;;;5092774;28;20048;-61
2023/10/31 10:16:57;;;;;;;6.18;2.88;;;;;;;;;;5092334;28;20051;-61
2023/10/31 10:19:25;;;;;;;3.65;3.20;;;;;;;;;;5092223;28;20052;-62
2023/10/31 10:21:53;;;;;;;4.55;3.08;;;;;;;;;;5092028;28;20048;-61
2023/10/31 10:24:20;;;;;;;4.65;2.97;;;;;;;;;;5092306;28;20063;-62
2023/10/31 10:26:49;;;;;;;5.28;3.55;;;;;;;;;;5092479;28;20056;-62
2023/10/31 10:29:16;;;;;;;3.83;2.72;;;;;;;;;;5092106;28;20052;-61
2023/10/31 10:31:43;;;;;;;4.90;3.50;;;;;;;;;;5091946;28;20044;-62
2023/10/31 10:34:10;;;;;;;6.25;3.55;;;;;;;;;;5091990;28;20047;-62
2023/10/31 10:36:37;;;;;;;6.72;4.10;;;;;;;;;;5091881;28;20056;-62
2023/10/31 10:39:04;;;;;;;5.90;4.30;;;;;;;;;;5092036;28;20052;-62
2023/10/31 10:41:34;;;;;;;7.88;4.00;;;;;;;;;;5092446;28;20158;-62
2023/10/31 10:44:05;;;;;;;4.75;3.60;;;;;;;;;;5092082;28;20055;-62
2023/10/31 10:46:33;;;;;;;5.50;3.92;;;;;;;;;;5092006;28;20185;-61
2023/10/31 10:49:02;;;;;;;9.07;6.22;;;;;;;;;;5091736;28;20405;-61
2023/10/31 10:51:30;;;;;;;8.57;5.50;;;;;;;;;;5091924;28;20063;-61
2023/10/31 10:53:59;;;;;;;6.07;4.18;;;;;;;;;;5092043;28;20052;-62
2023/10/31 10:56:26;;;;;;;5.88;3.88;;;;;;;;;;5091585;28;20059;-62
2023/10/31 10:58:57;;;;;;;6.57;3.70;;;;;;;;;;5091564;28;20059;-61
2023/10/31 11:01:25;;;;;;;4.93;3.20;;;;;;;;;;5092137;28;20060;-62
2023/10/31 11:03:54;;;;;;;5.78;3.70;;;;;;;;;;5092867;28;20048;-62
2023/10/31 11:06:21;;;;;;;5.60;3.60;;;;;;;;;;5095440;28;20048;-62
2023/10/31 11:08:48;;;;;;;4.50;3.70;;;;;;;;;;5095677;28;20055;-61
2023/10/31 11:11:16;;;;;;;7.65;4.13;;;;;;;;;;5095676;28;20063;-62
2023/10/31 11:13:44;;;;;;;4.55;3.42;;;;;;;;;;5096120;28;20396;-61
2023/10/31 11:16:14;;;;;;;6.85;3.90;;;;;;;;;;5095918;28;20059;-62
2023/10/31 11:18:42;;;;;;;5.43;3.70;;;;;;;;;;5095378;28;20126;-61
2023/10/31 11:21:09;;;;;;;5.68;3.92;;;;;;;;;;5095103;28;20405;-62
2023/10/31 11:23:36;;;;;;;5.45;3.83;;;;;;;;;;5094888;28;20052;-62
2023/10/31 11:26:04;;;;;;;4.22;3.40;;;;;;;;;;5095454;28;20056;-62
2023/10/31 11:28:33;;;;;;;5.28;3.45;;;;;;;;;;5095887;28;20056;-61
2023/10/31 11:31:02;;;;;;;4.85;3.30;;;;;;;;;;5095125;28;20052;-62
2023/10/31 11:33:29;;;;;;;6.72;3.78;;;;;;;;;;5095107;28;20378;-62
2023/10/31 11:36:02;;;;;;;4.60;3.33;;;;;;;;;;5095218;28;20047;-62
2023/10/31 11:38:31;;;;;;;5.03;3.45;;;;;;;;;;5095040;28;20056;-61
2023/10/31 11:41:01;;;;;;;5.20;3.40;;;;;;;;;;5095321;28;20531;-62
2023/10/31 11:43:36;;;;;;;5.25;3.20;;;;;;;;;;5094438;28;20486;-61
2023/10/31 11:46:03;;;;;;;6.43;3.33;;;;;;;;;;5094883;28;20062;-62
2023/10/31 11:48:44;;;;;;;7.47;3.20;;;;;;;;;;5094708;28;20420;-62
2023/10/31 11:51:13;;;;;;;4.65;2.70;;;;;;;;;;5095108;28;20055;-61
2023/10/31 11:53:40;;;;;;;6.00;2.70;;;;;;;;;;5094644;28;20462;-62
2023/10/31 11:56:07;;;;;;;5.15;2.83;;;;;;;;;;5095180;28;20048;-61
2023/10/31 11:58:34;;;;;;;5.53;2.60;;;;;;;;;;5095141;28;20477;-62
2023/10/31 12:01:03;;;;;;;5.55;2.80;;;;;;;;;;5094932;28;20401;-62
2023/10/31 12:03:37;;;;;;;4.65;2.65;;;;;;;;;;5094717;28;20059;-62
2023/10/31 12:06:04;;;;;;;6.63;3.20;;;;;;;;;;5094413;28;20056;-62
2023/10/31 12:08:33;;;;;;;4.15;2.50;;;;;;;;;;5094414;28;20055;-62
2023/10/31 12:11:07;;;;;;;4.95;2.38;;;;;;;;;;5094366;28;20485;-63
2023/10/31 12:13:34;;;;;;;4.70;2.50;;;;;;;;;;5094460;28;20048;-62
2023/10/31 12:16:01;;;;;;;6.18;2.17;;;;;;;;;;5092705;28;20063;-62
2023/10/31 12:18:28;;;;;;;3.72;1.95;;;;;;;;;;5094253;28;20074;-62
2023/10/31 12:20:55;;;;;;;4.80;1.92;;;;;;;;;;5094029;28;20055;-62
2023/10/31 12:23:22;;;;;;;9.25;2.90;;;;;;;;;;5094100;28;20044;-62
2023/10/31 12:25:50;;;;;;;4.07;2.35;;;;;;;;;;5094832;28;20059;-62
2023/10/31 12:28:17;;;;;;;4.03;1.63;;;;;;;;;;5094208;28;20048;-62
2023/10/31 12:30:45;;;;;;;3.83;1.58;;;;;;;;;;5094824;28;20052;-63
2023/10/31 12:33:12;;;;;;;4.18;1.83;;;;;;;;;;5093988;28;20048;-63
2023/10/31 12:35:40;;;;;;;6.07;2.33;;;;;;;;;;5094176;28;20056;-63
2023/10/31 12:38:07;;;;;;;3.05;1.73;;;;;;;;;;5094160;28;20413;-63
2023/10/31 12:40:34;;;;;;;3.88;1.70;;;;;;;;;;5094507;28;20070;-63
2023/10/31 12:43:03;;;;;;;5.45;2.25;;;;;;;;;;5094049;28;20063;-63
2023/10/31 12:45:29;;;;;;;;;;;;;;;;;;5095072;28;20048;-63
2023/10/31 12:48:03;;;;;;;4.05;1.40;;;;;;;;;;5093799;28;19931;-63
2023/10/31 12:50:31;;;;;;;4.13;1.60;;;;;;;;;;5093997;28;20056;-64
2023/10/31 12:52:59;;;;;;;6.57;2.25;;;;;;;;;;5093833;28;20499;-64
2023/10/31 12:55:27;;;;;;;4.63;1.93;;;;;;;;;;5093865;28;20469;-63
2023/10/31 12:57:54;;;;;;;5.97;2.85;;;;;;;;;;5093479;28;20056;-63
2023/10/31 13:00:25;;;;;;;3.67;1.80;;;;;;;;;;5093801;28;20056;-63
2023/10/31 13:02:52;;;;;;;4.72;1.98;;;;;;;;;;5093319;28;20450;-63
2023/10/31 13:05:19;;;;;;;5.47;1.67;;;;;;;;;;5093732;28;20051;-64
2023/10/31 13:07:49;;;;;;;5.82;2.25;;;;;;;;;;5093373;28;20055;-63
2023/10/31 13:10:16;;;;;;;5.95;2.17;;;;;;;;;;5093754;28;20055;-63
2023/10/31 13:12:44;;;;;;;4.25;1.75;;;;;;;;;;5093044;28;20055;-63
2023/10/31 13:15:11;;;;;;;3.70;1.60;;;;;;;;;;5092972;28;20078;-62
2023/10/31 13:17:41;;;;;;;11.10;2.00;;;;;;;;;;5093405;28;20401;-63
2023/10/31 13:20:09;;;;;;;4.93;1.80;;;;;;;;;;5093767;28;20056;-63
2023/10/31 13:22:35;;;;;;;5.20;1.80;;;;;;;;;;5093332;28;20077;-63
2023/10/31 13:25:04;;;;;;;6.50;2.60;;;;;;;;;;5093434;28;20051;-63
2023/10/31 13:27:31;;;;;;;4.63;1.70;;;;;;;;;;5092582;28;20048;-63
2023/10/31 13:29:59;;;;;;;6.85;1.90;;;;;;;;;;5093097;28;20174;-64
2023/10/31 13:32:26;;;;;;;3.63;1.55;;;;;;;;;;5093040;28;20048;-63
2023/10/31 13:34:55;;;;;;;2.58;1.20;;;;;;;;;;5092922;28;20048;-63
2023/10/31 13:37:21;;;;;;;3.10;1.40;;;;;;;;;;5092613;28;20055;-63
2023/10/31 13:39:48;;;;;;;3.28;1.80;;;;;;;;;;5093015;28;20056;-63
2023/10/31 13:42:15;;;;;;;3.35;1.52;;;;;;;;;;5093511;28;20052;-63
2023/10/31 13:44:42;;;;;;;4.05;1.80;;;;;;;;;;5092381;28;20063;-63
2023/10/31 13:47:09;;;;;;;4.50;1.25;;;;;;;;;;5092604;28;20052;-64
2023/10/31 13:49:36;;;;;;;3.10;1.40;;;;;;;;;;5092841;28;20060;-64
2023/10/31 13:52:05;;;;;;;3.85;1.50;;;;;;;;;;5092893;28;20512;-64
2023/10/31 13:54:32;;;;;;;2.47;1.50;;;;;;;;;;5092910;28;20055;-64
2023/10/31 13:56:59;;;;;;;3.50;1.48;;;;;;;;;;5092748;28;20048;-64
2023/10/31 13:59:26;;;;;;;4.03;1.42;;;;;;;;;;5092589;28;20477;-63
2023/10/31 14:01:53;;;;;;;3.08;1.60;;;;;;;;;;5092747;28;20064;-64
2023/10/31 14:04:20;;;;;;;3.40;2.00;;;;;;;;;;5092857;28;20048;-63
2023/10/31 14:06:47;;;;;;;2.67;1.30;;;;;;;;;;5092427;28;20067;-63
2023/10/31 14:09:16;;;;;;;3.00;1.60;;;;;;;;;;5092397;28;20048;-63
2023/10/31 14:11:43;;;;;;;3.45;1.40;;;;;;;;;;5092256;28;20052;-63
2023/10/31 14:14:10;;;;;;;2.90;1.67;;;;;;;;;;5092470;28;20047;-63
2023/10/31 14:16:37;;;;;;;3.85;1.52;;;;;;;;;;5092255;28;20413;-63
2023/10/31 14:19:04;;;;;;;3.15;2.00;;;;;;;;;;5092131;28;20059;-63
2023/10/31 14:21:30;;;;;;;4.10;1.58;;;;;;;;;;5092371;28;20122;-63
2023/10/31 14:23:57;;;;;;;2.85;1.50;;;;;;;;;;5091998;28;20070;-63
2023/10/31 14:26:27;;;;;;;4.28;1.30;;;;;;;;;;5091690;28;20051;-63
2023/10/31 14:28:54;;;;;;;2.72;1.52;;;;;;;;;;5092330;28;20048;-63
2023/10/31 14:31:21;;;;;;;2.78;2.40;;;;;;;;;;5092540;28;20052;-62
2023/10/31 14:33:48;;;;;;;6.35;2.65;;;;;;;;;;5092253;28;20343;-62
2023/10/31 14:36:15;;;;;;;4.05;2.13;;;;;;;;;;5092189;28;20131;-62
2023/10/31 14:38:42;;;;;;;4.88;2.83;;;;;;;;;;5092443;28;20052;-62
2023/10/31 14:41:09;;;;;;;2.38;1.27;;;;;;;;;;5096403;28;20067;-62
2023/10/31 14:43:37;;;;;;;3.10;2.60;;;;;;;;;;5096116;28;20425;-62
2023/10/31 14:46:04;;;;;;;6.93;2.65;;;;;;;;;;5096268;28;20052;-63
2023/10/31 14:48:31;;;;;;;3.25;1.40;;;;;;;;;;5096113;28;20056;-63
2023/10/31 14:50:59;;;;;;;3.55;1.50;;;;;;;;;;5096292;28;20051;-63
2023/10/31 14:53:26;;;;;;;3.42;1.40;;;;;;;;;;5096270;28;20063;-63